createdAt,value
2022-08-12T00:02:04.338Z,24.67
2022-08-12T00:04:53.821Z,24.66
2022-08-12T00:07:38.938Z,24.66
2022-08-12T00:10:24.451Z,24.64
2022-08-12T00:13:09.867Z,24.61
2022-08-12T00:15:56.212Z,24.63
2022-08-12T00:18:41.575Z,24.60
2022-08-12T00:21:26.896Z,24.59
2022-08-12T00:24:13.424Z,24.61
2022-08-12T00:27:00.706Z,24.56
2022-08-12T00:29:48.192Z,24.52
2022-08-12T00:32:36.187Z,24.48
2022-08-12T00:35:26.751Z,24.44
2022-08-12T00:38:22.548Z,24.40
2022-08-12T00:41:07.945Z,24.38
2022-08-12T00:43:41.414Z,24.35
2022-08-12T00:46:26.245Z,24.35
2022-08-12T00:48:53.401Z,24.32
2022-08-12T00:51:20.095Z,24.31
2022-08-12T00:53:52.039Z,24.27
2022-08-12T00:56:21.004Z,24.27
2022-08-12T00:58:50.849Z,24.24
2022-08-12T01:01:18.326Z,24.24
2022-08-12T01:04:08.020Z,24.22
2022-08-12T01:06:54.266Z,24.19
2022-08-12T01:09:41.033Z,24.16
2022-08-12T01:12:10.219Z,24.14
2022-08-12T01:14:37.795Z,24.12
2022-08-12T01:17:04.979Z,24.09
2022-08-12T01:19:32.337Z,24.03
2022-08-12T01:22:20.606Z,23.99
2022-08-12T01:25:09.706Z,23.93
2022-08-12T01:27:40.485Z,23.89
2022-08-12T01:30:09.839Z,23.85
2022-08-12T01:32:40.398Z,23.81
2022-08-12T01:35:17.656Z,23.78
2022-08-12T01:37:54.813Z,23.74
2022-08-12T01:40:35.378Z,23.69
2022-08-12T01:43:10.411Z,23.67
2022-08-12T01:46:09.702Z,23.61
2022-08-12T01:48:47.666Z,23.58
2022-08-12T01:52:15.994Z,23.55
2022-08-12T01:54:22.910Z,23.53
2022-08-12T01:57:13.552Z,23.50
2022-08-12T01:59:59.312Z,23.44
2022-08-12T02:02:32.206Z,23.42
2022-08-12T02:05:36.009Z,23.38
2022-08-12T02:08:43.340Z,23.32
2022-08-12T02:11:29.418Z,23.30
2022-08-12T02:14:31.381Z,23.27
2022-08-12T02:17:00.911Z,23.27
2022-08-12T02:19:42.867Z,23.23
2022-08-12T02:22:29.108Z,23.21
2022-08-12T02:25:15.947Z,23.18
2022-08-12T02:27:51.954Z,23.14
2022-08-12T02:30:21.991Z,23.10
2022-08-12T02:32:51.115Z,23.05
2022-08-12T02:35:23.902Z,23.03
2022-08-12T02:37:57.317Z,23.00
2022-08-12T02:40:25.655Z,22.98
2022-08-12T02:43:16.687Z,22.95
2022-08-12T02:45:57.489Z,22.91
2022-08-12T02:48:30.270Z,22.89
2022-08-12T02:51:01.735Z,22.87
2022-08-12T02:53:34.078Z,22.86
2022-08-12T02:56:05.154Z,22.83
2022-08-12T02:58:33.711Z,22.80
2022-08-12T03:01:10.470Z,22.79
2022-08-12T03:03:40.216Z,22.77
2022-08-12T03:06:16.801Z,22.75
2022-08-12T03:08:49.150Z,22.73
2022-08-12T03:11:30.068Z,22.71
2022-08-12T03:14:02.389Z,22.67
2022-08-12T03:16:33.378Z,22.65
2022-08-12T03:19:00.516Z,22.62
2022-08-12T03:21:55.369Z,22.59
2022-08-12T03:24:18.505Z,22.57
2022-08-12T03:26:47.587Z,22.57
2022-08-12T03:29:16.460Z,22.55
2022-08-12T03:31:44.075Z,22.53
2022-08-12T03:34:14.512Z,22.49
2022-08-12T03:36:42.319Z,22.46
2022-08-12T03:39:17.921Z,22.42
2022-08-12T03:42:09.291Z,22.38
2022-08-12T03:45:04.621Z,22.38
2022-08-12T03:47:49.926Z,22.38
2022-08-12T03:50:36.049Z,22.36
2022-08-12T03:53:25.666Z,22.36
2022-08-12T03:56:11.699Z,22.35
2022-08-12T03:58:57.939Z,22.35
2022-08-12T04:01:26.826Z,22.35
2022-08-12T04:03:55.319Z,22.35
2022-08-12T04:06:34.828Z,22.34
2022-08-12T04:09:14.686Z,22.33
2022-08-12T04:12:03.765Z,22.32
2022-08-12T04:14:36.880Z,22.27
2022-08-12T04:17:04.234Z,22.25
2022-08-12T04:19:31.396Z,22.24
2022-08-12T04:22:01.967Z,22.24
2022-08-12T04:24:35.350Z,22.23
2022-08-12T04:27:05.583Z,22.22
2022-08-12T04:30:31.318Z,22.21
2022-08-12T04:32:19.107Z,22.23
2022-08-12T04:34:46.852Z,22.21
2022-08-12T04:37:13.400Z,22.19
2022-08-12T04:39:40.729Z,22.18
2022-08-12T04:42:07.355Z,22.19
2022-08-12T04:44:33.890Z,22.19
2022-08-12T04:47:00.640Z,22.19
2022-08-12T04:49:28.551Z,22.20
2022-08-12T04:51:59.504Z,22.20
2022-08-12T04:54:30.796Z,22.19
2022-08-12T04:57:03.709Z,22.19
2022-08-12T04:59:48.499Z,22.19
2022-08-12T05:02:26.372Z,22.19
2022-08-12T05:05:00.613Z,22.19
2022-08-12T05:07:28.143Z,22.22
2022-08-12T05:09:58.936Z,22.22
2022-08-12T05:12:34.207Z,22.25
2022-08-12T05:15:00.915Z,22.26
2022-08-12T05:17:28.320Z,22.24
2022-08-12T05:19:57.341Z,22.24
2022-08-12T05:22:26.391Z,22.26
2022-08-12T05:24:54.043Z,22.26
2022-08-12T05:27:22.780Z,22.29
2022-08-12T05:30:05.293Z,22.31
2022-08-12T05:32:36.579Z,22.34
2022-08-12T05:35:06.426Z,22.36
2022-08-12T05:37:34.749Z,22.39
2022-08-12T05:40:10.118Z,22.42
2022-08-12T05:42:37.884Z,22.46
2022-08-12T05:45:05.166Z,22.51
2022-08-12T05:47:44.912Z,22.55
2022-08-12T05:50:18.371Z,22.62
2022-08-12T05:52:44.881Z,22.66
2022-08-12T05:55:11.630Z,22.72
2022-08-12T05:57:38.524Z,22.78
2022-08-12T06:00:06.415Z,22.83
2022-08-12T06:02:38.187Z,22.90
2022-08-12T06:05:07.418Z,22.98
2022-08-12T06:07:59.145Z,23.05
2022-08-12T06:10:31.613Z,23.14
2022-08-12T06:13:05.276Z,23.24
2022-08-12T06:15:37.782Z,23.34
2022-08-12T06:18:14.144Z,23.45
2022-08-12T06:20:43.642Z,23.60
2022-08-12T06:23:12.001Z,23.70
2022-08-12T06:25:38.813Z,23.85
2022-08-12T06:28:17.685Z,23.97
2022-08-12T06:30:57.253Z,24.11
2022-08-12T06:33:57.713Z,24.29
2022-08-12T06:36:23.195Z,24.46
2022-08-12T06:38:50.647Z,24.60
2022-08-12T06:41:36.559Z,24.76
2022-08-12T06:44:09.021Z,24.95
2022-08-12T06:46:39.341Z,25.13
2022-08-12T06:49:07.012Z,25.29
2022-08-12T06:51:33.956Z,25.46
2022-08-12T06:54:01.820Z,25.64
2022-08-12T06:56:59.810Z,25.84
2022-08-12T06:59:15.756Z,26.08
2022-08-12T07:01:50.830Z,26.28
2022-08-12T07:04:37.226Z,26.47
2022-08-12T07:07:10.460Z,26.64
2022-08-12T07:10:04.089Z,26.83
2022-08-12T07:12:28.115Z,27.00
2022-08-12T07:14:59.127Z,27.12
2022-08-12T07:17:27.925Z,27.29
2022-08-12T07:19:58.004Z,27.49
2022-08-12T07:22:27.334Z,27.70
2022-08-12T07:25:14.099Z,27.87
2022-08-12T07:27:42.332Z,28.08
2022-08-12T07:30:09.915Z,28.25
2022-08-12T07:32:37.007Z,28.43
2022-08-12T07:35:05.219Z,28.59
2022-08-12T07:37:32.359Z,28.72
2022-08-12T07:40:00.335Z,28.85
2022-08-12T07:42:28.047Z,29.06
2022-08-12T07:44:56.420Z,29.26
2022-08-12T07:47:23.981Z,29.46
2022-08-12T07:50:04.695Z,29.63
2022-08-12T07:52:38.432Z,29.85
2022-08-12T07:55:06.461Z,29.98
2022-08-12T07:57:33.271Z,30.11
2022-08-12T08:00:05.834Z,30.27
2022-08-12T08:02:35.780Z,30.41
2022-08-12T08:05:03.565Z,30.54
2022-08-12T08:07:30.825Z,30.64
2022-08-12T08:09:59.785Z,30.72
2022-08-12T08:12:46.084Z,30.86
2022-08-12T08:15:15.012Z,31.05
2022-08-12T08:17:57.688Z,31.19
2022-08-12T08:20:28.488Z,31.34
2022-08-12T08:23:01.373Z,31.48
2022-08-12T08:25:36.181Z,31.64
2022-08-12T08:28:10.590Z,31.77
2022-08-12T08:30:43.797Z,31.90
2022-08-12T08:33:23.484Z,32.03
2022-08-12T08:36:03.085Z,32.14
2022-08-12T08:38:33.218Z,32.22
2022-08-12T08:42:15.751Z,32.29
2022-08-12T08:44:11.359Z,32.45
2022-08-12T08:46:43.564Z,32.58
2022-08-12T08:49:11.203Z,32.73
2022-08-12T08:51:39.012Z,32.82
2022-08-12T08:54:12.147Z,32.93
2022-08-12T08:56:50.040Z,33.07
2022-08-12T08:59:19.479Z,33.21
2022-08-12T09:01:47.409Z,33.32
2022-08-12T09:05:13.645Z,33.41
2022-08-12T09:07:17.420Z,33.56
2022-08-12T09:12:56.407Z,33.79
2022-08-12T09:15:35.615Z,33.89
2022-08-12T09:18:08.950Z,33.97
2022-08-12T09:20:38.550Z,34.05
2022-08-12T09:23:58.836Z,34.18
2022-08-12T09:25:57.785Z,34.28
2022-08-12T09:28:31.281Z,34.36
2022-08-12T09:31:00.108Z,34.49
2022-08-12T09:34:29.258Z,34.60
2022-08-12T09:36:30.697Z,34.76
2022-08-12T09:38:58.955Z,34.82
2022-08-12T09:42:32.892Z,34.89
2022-08-12T09:44:39.290Z,34.96
2022-08-12T09:47:10.424Z,35.05
2022-08-12T09:49:42.221Z,35.15
2022-08-12T09:52:11.569Z,35.23
2022-08-12T09:54:42.690Z,35.26
2022-08-12T09:58:08.071Z,35.32
2022-08-12T10:00:12.618Z,35.45
2022-08-12T10:03:05.630Z,35.54
2022-08-12T10:06:20.089Z,35.62
2022-08-12T10:08:24.470Z,35.70
2022-08-12T10:11:18.482Z,35.69
2022-08-12T10:13:49.963Z,35.72
2022-08-12T10:16:38.607Z,35.79
2022-08-12T10:19:05.964Z,35.93
2022-08-12T10:21:44.992Z,36.00
2022-08-12T10:24:15.663Z,36.06
2022-08-12T10:27:06.307Z,36.14
2022-08-12T10:30:36.971Z,36.21
2022-08-12T10:32:44.944Z,36.26
2022-08-12T10:35:25.772Z,36.35
2022-08-12T10:38:34.890Z,36.41
2022-08-12T10:41:03.946Z,36.53
2022-08-12T10:43:54.471Z,36.57
2022-08-12T10:46:24.028Z,36.64
2022-08-12T10:49:05.269Z,36.73
2022-08-12T10:52:04.027Z,36.78
2022-08-12T10:54:19.845Z,36.90
2022-08-12T10:56:54.846Z,36.90
2022-08-12T10:59:58.528Z,36.89
2022-08-12T11:04:19.069Z,36.94
2022-08-12T11:07:03.467Z,37.01
2022-08-12T11:08:35.973Z,37.08
2022-08-12T11:10:37.375Z,37.15
2022-08-12T11:13:09.450Z,37.23
2022-08-12T11:16:19.544Z,37.36
2022-08-12T11:18:25.287Z,37.45
2022-08-12T11:20:54.260Z,37.52
2022-08-12T11:23:36.829Z,37.60
2022-08-12T11:26:06.797Z,37.63
2022-08-12T11:28:36.881Z,37.65
2022-08-12T11:31:06.492Z,37.59
2022-08-12T11:34:04.763Z,37.58
2022-08-12T11:36:24.190Z,37.63
2022-08-12T11:38:52.809Z,37.65
2022-08-12T11:41:28.031Z,37.73
2022-08-12T11:44:29.093Z,37.79
2022-08-12T11:46:58.105Z,37.86
2022-08-12T11:49:26.923Z,37.89
2022-08-12T11:51:58.941Z,37.93
2022-08-12T11:54:25.639Z,37.98
2022-08-12T11:56:59.375Z,38.01
2022-08-12T12:02:16.416Z,38.11
2022-08-12T12:04:45.557Z,38.11
2022-08-12T12:07:18.938Z,38.13
2022-08-12T12:09:53.361Z,38.20
2022-08-12T12:12:25.092Z,38.23
2022-08-12T12:14:54.937Z,38.34
2022-08-12T12:17:26.158Z,38.47
2022-08-12T12:19:53.973Z,38.60
2022-08-12T12:22:23.525Z,38.68
2022-08-12T12:24:54.200Z,38.75
2022-08-12T12:27:40.177Z,38.79
2022-08-12T12:30:18.173Z,38.81
2022-08-12T12:33:17.724Z,38.81
2022-08-12T12:35:44.729Z,38.87
2022-08-12T12:38:31.308Z,38.93
2022-08-12T12:41:16.983Z,38.99
2022-08-12T12:44:04.111Z,39.03
2022-08-12T12:46:31.104Z,39.06
2022-08-12T12:48:58.105Z,39.05
2022-08-12T12:52:06.739Z,39.05
2022-08-12T12:54:11.257Z,39.07
2022-08-12T12:56:40.428Z,38.98
2022-08-12T12:59:54.776Z,38.93
2022-08-12T13:01:55.130Z,38.94
2022-08-12T13:04:22.507Z,39.00
2022-08-12T13:06:52.705Z,39.00
2022-08-12T13:09:22.278Z,38.98
2022-08-12T13:11:53.173Z,38.96
2022-08-12T13:14:28.659Z,38.99
2022-08-12T13:17:02.824Z,39.05
2022-08-12T13:19:37.272Z,39.15
2022-08-12T13:22:18.835Z,39.18
2022-08-12T13:25:11.898Z,39.21
2022-08-12T13:27:46.212Z,39.25
2022-08-12T13:30:23.871Z,39.27
2022-08-12T13:32:59.238Z,39.22
2022-08-12T13:36:05.987Z,39.21
2022-08-12T13:38:26.554Z,39.24
2022-08-12T13:41:01.401Z,39.24
2022-08-12T13:43:41.379Z,39.21
2022-08-12T13:46:12.299Z,39.22
2022-08-12T13:48:45.038Z,39.23
2022-08-12T13:51:13.440Z,39.25
2022-08-12T13:53:59.130Z,39.28
2022-08-12T13:56:31.538Z,39.31
2022-08-12T13:59:08.096Z,39.30
2022-08-12T14:01:40.405Z,39.29
2022-08-12T14:04:12.512Z,39.26
2022-08-12T14:06:40.668Z,39.26
2022-08-12T14:09:17.935Z,39.28
2022-08-12T14:11:58.889Z,39.27
2022-08-12T14:14:31.525Z,39.29
2022-08-12T14:17:08.170Z,39.30
2022-08-12T14:19:48.590Z,39.32
2022-08-12T14:22:20.234Z,39.28
2022-08-12T14:24:47.388Z,39.22
2022-08-12T14:27:13.932Z,39.18
2022-08-12T14:30:15.067Z,39.14
2022-08-12T14:32:42.897Z,39.16
2022-08-12T14:35:12.060Z,39.17
2022-08-12T14:37:55.899Z,39.12
2022-08-12T14:40:27.802Z,39.05
2022-08-12T14:43:14.749Z,39.01
2022-08-12T14:45:49.040Z,39.07
2022-08-12T14:48:19.194Z,39.09
2022-08-12T14:51:03.050Z,39.06
2022-08-12T14:59:56.665Z,39.00
2022-08-12T15:02:20.715Z,39.02
2022-08-12T15:05:03.424Z,39.00
2022-08-12T15:07:34.051Z,39.07
2022-08-12T15:10:10.950Z,39.12
2022-08-12T15:12:40.597Z,39.11
2022-08-12T15:15:08.738Z,39.06
2022-08-12T15:17:38.536Z,38.99
2022-08-12T15:20:12.169Z,38.90
2022-08-12T15:23:01.351Z,38.85
2022-08-12T15:25:28.728Z,38.84
2022-08-12T15:28:04.066Z,38.77
2022-08-12T15:30:33.809Z,38.65
2022-08-12T15:33:12.825Z,38.54
2022-08-12T15:35:50.167Z,38.44
2022-08-12T15:38:21.152Z,38.35
2022-08-12T15:40:49.850Z,38.31
2022-08-12T15:44:16.458Z,38.30
2022-08-12T15:46:15.896Z,38.30
2022-08-12T15:48:47.028Z,38.22
2022-08-12T15:51:58.480Z,38.12
2022-08-12T15:54:33.612Z,38.01
2022-08-12T15:57:08.110Z,37.95
2022-08-12T16:00:00.251Z,37.87
2022-08-12T16:02:27.141Z,37.73
2022-08-12T16:04:57.910Z,37.61
2022-08-12T16:07:25.928Z,37.52
2022-08-12T16:10:05.605Z,37.40
2022-08-12T16:12:39.506Z,37.31
2022-08-12T16:15:08.464Z,37.20
2022-08-12T16:18:09.056Z,37.09
2022-08-12T16:20:27.834Z,36.98
2022-08-12T16:23:26.877Z,36.85
2022-08-12T16:26:05.501Z,36.74
2022-08-12T16:28:33.591Z,36.64
2022-08-12T16:31:01.995Z,36.54
2022-08-12T16:33:58.678Z,36.46
2022-08-12T16:36:25.591Z,36.39
2022-08-12T16:38:52.376Z,36.34
2022-08-12T16:41:18.885Z,36.25
2022-08-12T16:43:47.339Z,36.16
2022-08-12T16:46:23.906Z,36.12
2022-08-12T16:48:59.733Z,36.09
2022-08-12T16:51:40.395Z,36.01
2022-08-12T16:54:14.057Z,35.93
2022-08-12T16:56:54.527Z,35.87
2022-08-12T16:59:23.974Z,35.84
2022-08-12T17:01:50.795Z,35.77
2022-08-12T17:04:18.822Z,35.70
2022-08-12T17:06:47.863Z,35.61
2022-08-12T17:09:17.303Z,35.54
2022-08-12T17:11:45.208Z,35.48
2022-08-12T17:14:20.496Z,35.43
2022-08-12T17:16:51.840Z,35.39
2022-08-12T17:19:19.867Z,35.35
2022-08-12T17:22:02.752Z,35.28
2022-08-12T17:24:32.732Z,35.21
2022-08-12T17:27:09.569Z,35.09
2022-08-12T17:30:01.578Z,34.98
2022-08-12T17:32:31.209Z,34.87
2022-08-12T17:35:18.457Z,34.77
2022-08-12T17:37:48.354Z,34.69
2022-08-12T17:40:34.698Z,34.64
2022-08-12T17:43:56.371Z,34.60
2022-08-12T17:45:59.027Z,34.53
2022-08-12T17:48:35.152Z,34.48
2022-08-12T17:51:15.123Z,34.38
2022-08-12T17:54:11.416Z,34.30
2022-08-12T17:56:37.208Z,34.22
2022-08-12T17:59:04.024Z,34.13
2022-08-12T18:01:35.893Z,34.05
2022-08-12T18:04:21.756Z,33.98
2022-08-12T18:06:52.951Z,33.91
2022-08-12T18:09:21.785Z,33.80
2022-08-12T18:12:11.169Z,33.73
2022-08-12T18:14:41.563Z,33.64
2022-08-12T18:17:16.188Z,33.54
2022-08-12T18:20:05.809Z,33.42
2022-08-12T18:22:33.121Z,33.31
2022-08-12T18:25:05.036Z,33.23
2022-08-12T18:27:46.704Z,33.09
2022-08-12T18:30:20.467Z,32.95
2022-08-12T18:33:03.758Z,32.80
2022-08-12T18:35:46.891Z,32.66
2022-08-12T18:38:17.988Z,32.51
2022-08-12T18:41:07.083Z,32.39
2022-08-12T18:43:58.457Z,32.26
2022-08-12T18:46:48.909Z,32.12
2022-08-12T18:49:37.964Z,32.01
2022-08-12T18:52:07.769Z,31.91
2022-08-12T18:54:49.083Z,31.81
2022-08-12T18:57:45.931Z,31.67
2022-08-12T19:00:18.796Z,31.51
2022-08-12T19:02:53.445Z,31.41
2022-08-12T19:05:54.515Z,31.28
2022-08-12T19:08:26.411Z,31.14
2022-08-12T19:10:54.367Z,31.03
2022-08-12T19:13:43.587Z,30.92
2022-08-12T19:16:10.893Z,30.80
2022-08-12T19:18:44.562Z,30.68
2022-08-12T19:21:16.366Z,30.55
2022-08-12T19:23:44.407Z,30.42
2022-08-12T19:26:12.427Z,30.29
2022-08-12T19:28:39.753Z,30.16
2022-08-12T19:31:56.747Z,30.02
2022-08-12T19:34:56.302Z,29.88
2022-08-12T19:37:20.387Z,29.75
2022-08-12T19:40:10.160Z,29.63
2022-08-12T19:42:42.718Z,29.52
2022-08-12T19:45:15.790Z,29.40
2022-08-12T19:47:44.634Z,29.30
2022-08-12T19:50:11.871Z,29.19
2022-08-12T19:52:39.001Z,29.09
2022-08-12T19:55:11.573Z,28.99
2022-08-12T19:58:03.337Z,28.91
2022-08-12T20:00:34.441Z,28.86
2022-08-12T20:03:05.428Z,28.80
2022-08-12T20:06:05.124Z,28.76
2022-08-12T20:08:31.678Z,28.72
2022-08-12T20:12:13.202Z,28.71
2022-08-12T20:14:00.972Z,28.68
2022-08-12T20:16:57.306Z,28.67
2022-08-12T20:19:52.236Z,28.64
2022-08-12T20:22:23.392Z,28.60
2022-08-12T20:24:55.337Z,28.56
2022-08-12T20:27:29.237Z,28.51
2022-08-12T20:30:13.768Z,28.45
2022-08-12T20:33:32.181Z,28.37
2022-08-12T20:36:13.261Z,28.34
2022-08-12T20:38:46.719Z,28.24
2022-08-12T20:41:17.715Z,28.17
2022-08-12T20:43:49.663Z,28.08
2022-08-12T20:46:21.088Z,28.03
2022-08-12T20:48:54.993Z,28.00
2022-08-12T20:51:24.485Z,27.95
2022-08-12T20:53:59.431Z,27.90
2022-08-12T20:56:30.318Z,27.83
2022-08-12T20:59:00.874Z,27.74
2022-08-12T21:01:29.265Z,27.63
2022-08-12T21:04:33.226Z,27.52
2022-08-12T21:07:09.411Z,27.41
2022-08-12T21:09:40.658Z,27.29
2022-08-12T21:12:31.733Z,27.19
2022-08-12T21:15:18.035Z,27.14
2022-08-12T21:18:09.057Z,27.09
2022-08-12T21:20:34.416Z,27.05
2022-08-12T21:23:06.464Z,27.02
2022-08-12T21:25:36.357Z,27.00
2022-08-12T21:28:11.662Z,26.98
2022-08-12T21:30:43.354Z,26.97
2022-08-12T21:34:06.671Z,26.97
2022-08-12T21:36:34.881Z,26.96
2022-08-12T21:39:20.818Z,26.94
2022-08-12T21:41:52.968Z,26.94
2022-08-12T21:45:44.397Z,26.91
2022-08-12T21:47:21.179Z,26.88
2022-08-12T21:49:55.745Z,26.84
2022-08-12T21:52:34.778Z,26.82
2022-08-12T21:55:08.554Z,26.80
2022-08-12T21:57:53.502Z,26.79
2022-08-12T22:00:33.316Z,26.77
2022-08-12T22:04:01.410Z,26.77
2022-08-12T22:06:30.871Z,26.77
2022-08-12T22:09:15.976Z,26.76
2022-08-12T22:11:56.177Z,26.75
2022-08-12T22:14:26.171Z,26.74
2022-08-12T22:16:55.851Z,26.73
2022-08-12T22:19:23.361Z,26.72
2022-08-12T22:21:53.463Z,26.70
2022-08-12T22:24:26.584Z,26.67
2022-08-12T22:27:17.838Z,26.59
2022-08-12T22:30:16.827Z,26.56
2022-08-12T22:32:50.202Z,26.55
2022-08-12T22:35:56.365Z,26.48
2022-08-12T22:38:24.002Z,26.41
2022-08-12T22:40:54.292Z,26.36
2022-08-12T22:43:58.580Z,26.31
2022-08-12T22:46:52.748Z,26.28
2022-08-12T22:49:37.112Z,26.24
2022-08-12T22:52:18.228Z,26.17
2022-08-12T22:55:02.276Z,26.11
2022-08-12T22:57:54.356Z,26.04
2022-08-12T23:00:24.555Z,25.96
2022-08-12T23:03:48.150Z,25.88
2022-08-12T23:06:10.228Z,25.80
2022-08-12T23:08:38.563Z,25.74
2022-08-12T23:11:06.406Z,25.67
2022-08-12T23:13:55.325Z,25.61
2022-08-12T23:16:31.687Z,25.57
2022-08-12T23:19:23.238Z,25.52
2022-08-12T23:22:06.602Z,25.46
2022-08-12T23:24:55.611Z,25.40
2022-08-12T23:27:50.254Z,25.37
2022-08-12T23:30:24.725Z,25.32
2022-08-12T23:33:13.210Z,25.28
2022-08-12T23:35:58.869Z,25.26
2022-08-12T23:38:32.321Z,25.24
2022-08-12T23:41:05.647Z,25.21
2022-08-12T23:43:39.260Z,25.20
2022-08-12T23:46:09.221Z,25.18
2022-08-12T23:48:37.357Z,25.18
2022-08-12T23:51:22.727Z,25.15
2022-08-12T23:54:02.859Z,25.13
2022-08-12T23:56:33.131Z,25.09
2022-08-12T23:59:08.845Z,25.06
